sensor_id;sensor_type;location;lat;lon;timestamp;pressure;altitude;pressure_sealevel;temperature;humidity
37312;BME280;23197;53.912;9.138;2022-07-23T00:02:05;101781.50;;;19.69;50.31
37312;BME280;23197;53.912;9.138;2022-07-23T00:04:32;101776.09;;;19.70;50.37
37312;BME280;23197;53.912;9.138;2022-07-23T00:06:57;101771.63;;;19.71;50.31
37312;BME280;23197;53.912;9.138;2022-07-23T00:09:23;101766.31;;;19.71;50.35
37312;BME280;23197;53.912;9.138;2022-07-23T00:11:48;101755.72;;;19.71;50.15
37312;BME280;23197;53.912;9.138;2022-07-23T00:14:14;101756.41;;;19.73;50.37
37312;BME280;23197;53.912;9.138;2022-07-23T00:16:39;101774.13;;;19.72;50.35
37312;BME280;23197;53.912;9.138;2022-07-23T00:19:04;101775.13;;;19.71;50.36
37312;BME280;23197;53.912;9.138;2022-07-23T00:21:30;101777.78;;;19.71;50.51
37312;BME280;23197;53.912;9.138;2022-07-23T00:23:55;101771.63;;;19.71;50.39
37312;BME280;23197;53.912;9.138;2022-07-23T00:26:21;101774.13;;;19.72;50.52
37312;BME280;23197;53.912;9.138;2022-07-23T00:28:47;101775.13;;;19.71;50.58
37312;BME280;23197;53.912;9.138;2022-07-23T00:31:12;101761.84;;;19.71;50.66
37312;BME280;23197;53.912;9.138;2022-07-23T00:33:38;101768.00;;;19.72;50.66
37312;BME280;23197;53.912;9.138;2022-07-23T00:36:04;101764.38;;;19.73;50.59
37312;BME280;23197;53.912;9.138;2022-07-23T00:38:29;101766.19;;;19.72;50.52
37312;BME280;23197;53.912;9.138;2022-07-23T00:40:55;101774.97;;;19.73;50.54
37312;BME280;23197;53.912;9.138;2022-07-23T00:43:21;101766.31;;;19.71;50.52
37312;BME280;23197;53.912;9.138;2022-07-23T00:45:47;101769.66;;;19.73;50.41
37312;BME280;23197;53.912;9.138;2022-07-23T00:48:12;101771.34;;;19.74;50.38
37312;BME280;23197;53.912;9.138;2022-07-23T00:50:38;101765.22;;;19.73;50.43
37312;BME280;23197;53.912;9.138;2022-07-23T00:53:04;101767.72;;;19.75;50.46
37312;BME280;23197;53.912;9.138;2022-07-23T00:55:30;101764.13;;;19.76;50.33
37312;BME280;23197;53.912;9.138;2022-07-23T00:57:57;101756.00;;;19.77;50.24
37312;BME280;23197;53.912;9.138;2022-07-23T01:00:24;101754.19;;;19.78;50.33
37312;BME280;23197;53.912;9.138;2022-07-23T01:02:50;101757.53;;;19.80;50.20
37312;BME280;23197;53.912;9.138;2022-07-23T01:05:15;101752.09;;;19.82;50.31
37312;BME280;23197;53.912;9.138;2022-07-23T01:07:43;101750.16;;;19.84;50.30
37312;BME280;23197;53.912;9.138;2022-07-23T01:10:08;101749.19;;;19.85;50.18
37312;BME280;23197;53.912;9.138;2022-07-23T01:12:54;101751.00;;;19.84;50.33
37312;BME280;23197;53.912;9.138;2022-07-23T01:15:20;101753.53;;;19.86;50.42
37312;BME280;23197;53.912;9.138;2022-07-23T01:17:45;101753.53;;;19.86;50.42
37312;BME280;23197;53.912;9.138;2022-07-23T01:20:11;101757.00;;;19.86;50.44
37312;BME280;23197;53.912;9.138;2022-07-23T01:22:36;101747.09;;;19.88;50.49
37312;BME280;23197;53.912;9.138;2022-07-23T01:25:05;101749.75;;;19.88;50.39
37312;BME280;23197;53.912;9.138;2022-07-23T01:27:31;101751.31;;;19.91;50.48
37312;BME280;23197;53.912;9.138;2022-07-23T01:30:03;101746.00;;;19.91;50.38
37312;BME280;23197;53.912;9.138;2022-07-23T01:32:29;101748.78;;;19.89;50.33
37312;BME280;23197;53.912;9.138;2022-07-23T01:34:55;101746.25;;;19.88;50.48
37312;BME280;23197;53.912;9.138;2022-07-23T01:37:20;101732.03;;;19.89;50.55
37312;BME280;23197;53.912;9.138;2022-07-23T01:39:46;101741.78;;;19.88;50.61
37312;BME280;23197;53.912;9.138;2022-07-23T01:42:13;101747.81;;;19.90;50.61
37312;BME280;23197;53.912;9.138;2022-07-23T01:44:40;101746.13;;;19.89;50.47
37312;BME280;23197;53.912;9.138;2022-07-23T01:47:08;101739.84;;;19.90;50.53
37312;BME280;23197;53.912;9.138;2022-07-23T01:49:34;101738.44;;;19.86;50.54
37312;BME280;23197;53.912;9.138;2022-07-23T01:52:23;101726.16;;;19.85;50.61
37312;BME280;23197;53.912;9.138;2022-07-23T01:54:49;101735.09;;;19.84;50.75
37312;BME280;23197;53.912;9.138;2022-07-23T01:57:16;101738.44;;;19.86;50.58
37312;BME280;23197;53.912;9.138;2022-07-23T01:59:41;101730.34;;;19.88;50.59
37312;BME280;23197;53.912;9.138;2022-07-23T02:02:08;101723.22;;;19.88;50.73
37312;BME280;23197;53.912;9.138;2022-07-23T02:04:34;101722.38;;;19.88;51.04
37312;BME280;23197;53.912;9.138;2022-07-23T02:07:03;101725.03;;;19.88;50.98
37312;BME280;23197;53.912;9.138;2022-07-23T02:09:28;101708.28;;;19.87;51.05
37312;BME280;23197;53.912;9.138;2022-07-23T02:11:54;101704.78;;;19.87;50.96
37312;BME280;23197;53.912;9.138;2022-07-23T02:14:19;101711.91;;;19.86;50.90
37312;BME280;23197;53.912;9.138;2022-07-23T02:16:45;101708.28;;;19.87;50.72
37312;BME280;23197;53.912;9.138;2022-07-23T02:19:11;101706.34;;;19.89;50.95
37312;BME280;23197;53.912;9.138;2022-07-23T02:21:36;101691.38;;;19.88;50.88
37312;BME280;23197;53.912;9.138;2022-07-23T02:24:02;101683.41;;;19.88;50.96
37312;BME280;23197;53.912;9.138;2022-07-23T02:26:27;101683.16;;;19.91;50.90
37312;BME280;23197;53.912;9.138;2022-07-23T02:28:53;101686.66;;;19.92;50.79
37312;BME280;23197;53.912;9.138;2022-07-23T02:31:20;101691.81;;;19.93;50.97
37312;BME280;23197;53.912;9.138;2022-07-23T02:33:45;101699.75;;;19.93;50.67
37312;BME280;23197;53.912;9.138;2022-07-23T02:36:12;101698.78;;;19.94;50.72
37312;BME280;23197;53.912;9.138;2022-07-23T02:38:38;101698.78;;;19.94;50.75
37312;BME280;23197;53.912;9.138;2022-07-23T02:41:04;101704.09;;;19.94;50.80
37312;BME280;23197;53.912;9.138;2022-07-23T02:43:30;101694.47;;;19.93;50.76
37312;BME280;23197;53.912;9.138;2022-07-23T02:45:56;101701.31;;;19.96;50.71
37312;BME280;23197;53.912;9.138;2022-07-23T02:48:23;101694.06;;;19.98;50.94
37312;BME280;23197;53.912;9.138;2022-07-23T02:50:48;101689.88;;;19.95;50.97
37312;BME280;23197;53.912;9.138;2022-07-23T02:53:18;101694.31;;;19.95;51.00
37312;BME280;23197;53.912;9.138;2022-07-23T02:55:44;101689.16;;;19.93;51.10
37312;BME280;23197;53.912;9.138;2022-07-23T02:58:10;101698.09;;;19.92;51.23
37312;BME280;23197;53.912;9.138;2022-07-23T03:00:35;101699.34;;;19.88;51.32
37312;BME280;23197;53.912;9.138;2022-07-23T03:03:01;101692.66;;;19.84;51.31
37312;BME280;23197;53.912;9.138;2022-07-23T03:05:27;101682.28;;;19.81;51.66
37312;BME280;23197;53.912;9.138;2022-07-23T03:07:52;101693.88;;;19.80;51.62
37312;BME280;23197;53.912;9.138;2022-07-23T03:10:19;101693.88;;;19.80;51.70
37312;BME280;23197;53.912;9.138;2022-07-23T03:12:44;101684.25;;;19.79;51.80
37312;BME280;23197;53.912;9.138;2022-07-23T03:15:10;101679.94;;;19.78;51.96
37312;BME280;23197;53.912;9.138;2022-07-23T03:17:35;101679.94;;;19.78;51.97
37312;BME280;23197;53.912;9.138;2022-07-23T03:20:02;101678.94;;;19.79;51.75
37312;BME280;23197;53.912;9.138;2022-07-23T03:22:27;101667.50;;;19.78;51.96
37312;BME280;23197;53.912;9.138;2022-07-23T03:24:53;101677.28;;;19.78;51.92
37312;BME280;23197;53.912;9.138;2022-07-23T03:27:25;101677.41;;;19.76;51.92
37312;BME280;23197;53.912;9.138;2022-07-23T03:29:52;101671.13;;;19.77;52.05
37312;BME280;23197;53.912;9.138;2022-07-23T03:32:18;101669.56;;;19.75;52.00
37312;BME280;23197;53.912;9.138;2022-07-23T03:34:44;101674.19;;;19.73;52.11
37312;BME280;23197;53.912;9.138;2022-07-23T03:37:09;101672.78;;;19.69;52.21
37312;BME280;23197;53.912;9.138;2022-07-23T03:39:36;101672.22;;;19.65;52.44
37312;BME280;23197;53.912;9.138;2022-07-23T03:42:01;101667.06;;;19.64;52.59
37312;BME280;23197;53.912;9.138;2022-07-23T03:44:27;101675.03;;;19.64;52.56
37312;BME280;23197;53.912;9.138;2022-07-23T03:46:53;101665.25;;;19.64;52.58
37312;BME280;23197;53.912;9.138;2022-07-23T03:49:18;101664.97;;;19.67;52.53
37312;BME280;23197;53.912;9.138;2022-07-23T03:51:44;101665.53;;;19.71;52.69
37312;BME280;23197;53.912;9.138;2022-07-23T03:54:09;101670.56;;;19.74;52.61
37312;BME280;23197;53.912;9.138;2022-07-23T03:56:35;101665.00;;;19.77;52.76
37312;BME280;23197;53.912;9.138;2022-07-23T03:59:01;101667.34;;;19.80;52.87
37312;BME280;23197;53.912;9.138;2022-07-23T04:01:27;101666.38;;;19.81;52.98
37312;BME280;23197;53.912;9.138;2022-07-23T04:03:52;101660.09;;;19.82;53.22
37312;BME280;23197;53.912;9.138;2022-07-23T04:06:18;101657.19;;;19.85;53.44
37312;BME280;23197;53.912;9.138;2022-07-23T04:08:43;101654.22;;;19.88;53.31
37312;BME280;23197;53.912;9.138;2022-07-23T04:11:09;101653.28;;;19.89;53.44
37312;BME280;23197;53.912;9.138;2022-07-23T04:13:35;101651.31;;;19.91;53.44
37312;BME280;23197;53.912;9.138;2022-07-23T04:16:02;101657.47;;;19.92;53.62
37312;BME280;23197;53.912;9.138;2022-07-23T04:18:29;101663.75;;;19.91;53.65
37312;BME280;23197;53.912;9.138;2022-07-23T04:21:27;101660.25;;;19.90;53.62
37312;BME280;23197;53.912;9.138;2022-07-23T04:23:54;101668.91;;;19.92;53.56
37312;BME280;23197;53.912;9.138;2022-07-23T04:26:19;101669.88;;;19.91;53.89
37312;BME280;23197;53.912;9.138;2022-07-23T04:28:46;101666.53;;;19.89;53.80
37312;BME280;23197;53.912;9.138;2022-07-23T04:31:12;101671.13;;;19.87;53.89
37312;BME280;23197;53.912;9.138;2022-07-23T04:33:38;101680.06;;;19.86;53.82
37312;BME280;23197;53.912;9.138;2022-07-23T04:36:06;101679.22;;;19.86;53.90
37312;BME280;23197;53.912;9.138;2022-07-23T04:38:31;101684.53;;;19.86;54.00
37312;BME280;23197;53.912;9.138;2022-07-23T04:41:00;101696.53;;;19.80;54.38
37312;BME280;23197;53.912;9.138;2022-07-23T04:43:26;101697.91;;;19.74;54.38
37312;BME280;23197;53.912;9.138;2022-07-23T04:45:53;101686.91;;;19.69;54.62
37312;BME280;23197;53.912;9.138;2022-07-23T04:48:18;101692.31;;;19.68;54.61
37312;BME280;23197;53.912;9.138;2022-07-23T04:50:45;101686.19;;;19.67;54.60
37312;BME280;23197;53.912;9.138;2022-07-23T04:53:21;101689.66;;;19.68;54.45
37312;BME280;23197;53.912;9.138;2022-07-23T04:55:48;101692.31;;;19.68;54.32
37312;BME280;23197;53.912;9.138;2022-07-23T04:58:13;101689.41;;;19.71;54.46
37312;BME280;23197;53.912;9.138;2022-07-23T05:00:39;101700.47;;;19.76;54.21
37312;BME280;23197;53.912;9.138;2022-07-23T05:03:05;101698.22;;;19.81;54.14
37312;BME280;23197;53.912;9.138;2022-07-23T05:05:31;101694.31;;;19.85;54.04
37312;BME280;23197;53.912;9.138;2022-07-23T05:08:05;101699.88;;;19.82;53.96
37312;BME280;23197;53.912;9.138;2022-07-23T05:10:30;101688.72;;;19.88;53.79
37312;BME280;23197;53.912;9.138;2022-07-23T05:12:56;101694.31;;;19.95;53.73
37312;BME280;23197;53.912;9.138;2022-07-23T05:15:21;101690.41;;;19.99;53.70
37312;BME280;23197;53.912;9.138;2022-07-23T05:17:47;101694.59;;;20.01;53.73
37312;BME280;23197;53.912;9.138;2022-07-23T05:20:16;101686.38;;;20.04;53.65
37312;BME280;23197;53.912;9.138;2022-07-23T05:22:41;101697.44;;;20.10;53.62
37312;BME280;23197;53.912;9.138;2022-07-23T05:25:07;101699.78;;;20.13;53.66
37312;BME280;23197;53.912;9.138;2022-07-23T05:27:33;101692.66;;;20.13;53.71
37312;BME280;23197;53.912;9.138;2022-07-23T05:30:01;101702.28;;;20.14;53.63
37312;BME280;23197;53.912;9.138;2022-07-23T05:32:27;101703.84;;;20.17;53.68
37312;BME280;23197;53.912;9.138;2022-07-23T05:35:06;101706.34;;;20.18;53.59
37312;BME280;23197;53.912;9.138;2022-07-23T05:37:33;101713.91;;;20.23;53.56
37312;BME280;23197;53.912;9.138;2022-07-23T05:40:03;101715.44;;;20.25;53.70
37312;BME280;23197;53.912;9.138;2022-07-23T05:42:31;101707.91;;;20.30;53.38
37312;BME280;23197;53.912;9.138;2022-07-23T05:44:57;101700.78;;;20.31;53.45
37312;BME280;23197;53.912;9.138;2022-07-23T05:47:22;101710.25;;;20.33;53.35
37312;BME280;23197;53.912;9.138;2022-07-23T05:49:48;101715.56;;;20.33;53.29
37312;BME280;23197;53.912;9.138;2022-07-23T05:52:24;101704.84;;;20.35;53.09
37312;BME280;23197;53.912;9.138;2022-07-23T05:55:09;101706.50;;;20.36;52.98
37312;BME280;23197;53.912;9.138;2022-07-23T05:57:35;101713.34;;;20.39;53.03
37312;BME280;23197;53.912;9.138;2022-07-23T06:00:03;101708.59;;;20.42;52.96
37312;BME280;23197;53.912;9.138;2022-07-23T06:02:41;101708.34;;;20.45;52.85
37312;BME280;23197;53.912;9.138;2022-07-23T06:05:09;101710.84;;;20.56;53.00
37312;BME280;23197;53.912;9.138;2022-07-23T06:07:35;101709.16;;;20.65;52.94
37312;BME280;23197;53.912;9.138;2022-07-23T06:10:03;101707.19;;;20.77;53.12
37312;BME280;23197;53.912;9.138;2022-07-23T06:12:29;101711.34;;;20.89;52.82
37312;BME280;23197;53.912;9.138;2022-07-23T06:14:54;101713.44;;;20.95;52.71
37312;BME280;23197;53.912;9.138;2022-07-23T06:17:20;101713.84;;;21.00;52.76
37312;BME280;23197;53.912;9.138;2022-07-23T06:19:46;101714.38;;;21.04;52.55
37312;BME280;23197;53.912;9.138;2022-07-23T06:22:11;101718.59;;;21.06;52.20
37312;BME280;23197;53.912;9.138;2022-07-23T06:24:37;101719.97;;;21.10;52.09
37312;BME280;23197;53.912;9.138;2022-07-23T06:27:03;101725.00;;;21.13;51.74
37312;BME280;23197;53.912;9.138;2022-07-23T06:29:29;101726.38;;;21.18;51.83
37312;BME280;23197;53.912;9.138;2022-07-23T06:31:55;101728.75;;;21.21;52.35
37312;BME280;23197;53.912;9.138;2022-07-23T06:34:20;101727.78;;;21.22;52.63
37312;BME280;23197;53.912;9.138;2022-07-23T06:36:45;101731.94;;;21.24;52.80
37312;BME280;23197;53.912;9.138;2022-07-23T06:39:11;101731.13;;;21.24;53.27
37312;BME280;23197;53.912;9.138;2022-07-23T06:41:36;101730.28;;;21.23;53.45
37312;BME280;23197;53.912;9.138;2022-07-23T06:44:02;101734.75;;;21.23;53.20
37312;BME280;23197;53.912;9.138;2022-07-23T06:46:30;101725.53;;;21.27;53.25
37312;BME280;23197;53.912;9.138;2022-07-23T06:48:56;101727.19;;;21.28;53.26
37312;BME280;23197;53.912;9.138;2022-07-23T06:51:21;101716.56;;;21.28;53.11
37312;BME280;23197;53.912;9.138;2022-07-23T06:53:47;101724.25;;;21.31;52.80
37312;BME280;23197;53.912;9.138;2022-07-23T06:56:13;101735.28;;;21.36;52.59
37312;BME280;23197;53.912;9.138;2022-07-23T06:58:39;101734.72;;;21.42;52.35
37312;BME280;23197;53.912;9.138;2022-07-23T07:01:05;101739.72;;;21.45;51.65
37312;BME280;23197;53.912;9.138;2022-07-23T07:03:30;101736.63;;;21.50;51.68
37312;BME280;23197;53.912;9.138;2022-07-23T07:05:56;101738.03;;;21.54;51.21
37312;BME280;23197;53.912;9.138;2022-07-23T07:08:23;101734.94;;;21.58;51.16
37312;BME280;23197;53.912;9.138;2022-07-23T07:10:49;101734.31;;;21.64;51.16
37312;BME280;23197;53.912;9.138;2022-07-23T07:13:14;101736.50;;;21.79;51.17
37312;BME280;23197;53.912;9.138;2022-07-23T07:15:39;101742.00;;;21.95;51.03
37312;BME280;23197;53.912;9.138;2022-07-23T07:18:05;101739.41;;;22.03;50.69
37312;BME280;23197;53.912;9.138;2022-07-23T07:20:30;101747.38;;;22.13;50.35
37312;BME280;23197;53.912;9.138;2022-07-23T07:22:56;101744.94;;;22.19;49.57
37312;BME280;23197;53.912;9.138;2022-07-23T07:25:21;101739.47;;;22.39;49.31
37312;BME280;23197;53.912;9.138;2022-07-23T07:27:47;101737.91;;;22.54;49.03
37312;BME280;23197;53.912;9.138;2022-07-23T07:30:13;101742.44;;;22.80;48.64
37312;BME280;23197;53.912;9.138;2022-07-23T07:32:39;101745.09;;;23.23;47.61
37312;BME280;23197;53.912;9.138;2022-07-23T07:35:05;101739.22;;;23.80;48.02
37312;BME280;23197;53.912;9.138;2022-07-23T07:37:31;101735.97;;;24.51;48.34
37312;BME280;23197;53.912;9.138;2022-07-23T07:39:56;101739.75;;;25.22;47.17
37312;BME280;23197;53.912;9.138;2022-07-23T07:42:22;101742.84;;;25.89;46.66
37312;BME280;23197;53.912;9.138;2022-07-23T07:44:47;101736.81;;;26.18;45.37
37312;BME280;23197;53.912;9.138;2022-07-23T07:47:13;101732.16;;;26.35;45.36
37312;BME280;23197;53.912;9.138;2022-07-23T07:49:41;101736.50;;;26.36;43.55
37312;BME280;23197;53.912;9.138;2022-07-23T07:52:07;101747.09;;;26.30;43.21
37312;BME280;23197;53.912;9.138;2022-07-23T07:54:32;101746.31;;;26.21;42.63
37312;BME280;23197;53.912;9.138;2022-07-23T07:56:58;101749.75;;;26.15;42.90
37312;BME280;23197;53.912;9.138;2022-07-23T07:59:23;101748.03;;;26.14;42.96
37312;BME280;23197;53.912;9.138;2022-07-23T08:01:49;101747.06;;;26.15;42.80
37312;BME280;23197;53.912;9.138;2022-07-23T08:04:14;101750.38;;;26.17;41.62
37312;BME280;23197;53.912;9.138;2022-07-23T08:06:40;101747.06;;;26.15;42.02
37312;BME280;23197;53.912;9.138;2022-07-23T08:09:05;101752.88;;;26.18;42.03
37312;BME280;23197;53.912;9.138;2022-07-23T08:11:30;101752.88;;;26.18;41.74
37312;BME280;23197;53.912;9.138;2022-07-23T08:13:56;101755.09;;;26.15;41.56
37312;BME280;23197;53.912;9.138;2022-07-23T08:16:21;101745.72;;;26.34;41.79
37312;BME280;23197;53.912;9.138;2022-07-23T08:18:47;101749.91;;;26.36;41.72
37312;BME280;23197;53.912;9.138;2022-07-23T08:21:12;101760.28;;;26.16;40.99
37312;BME280;23197;53.912;9.138;2022-07-23T08:23:38;101761.44;;;25.91;41.09
37312;BME280;23197;53.912;9.138;2022-07-23T08:26:04;101777.06;;;25.71;41.63
37312;BME280;23197;53.912;9.138;2022-07-23T08:28:29;101765.94;;;25.51;41.50
37312;BME280;23197;53.912;9.138;2022-07-23T08:30:58;101772.91;;;25.13;41.70
37312;BME280;23197;53.912;9.138;2022-07-23T08:33:24;101783.59;;;24.80;42.57
37312;BME280;23197;53.912;9.138;2022-07-23T08:35:50;101786.28;;;24.48;43.23
37312;BME280;23197;53.912;9.138;2022-07-23T08:38:19;101791.38;;;24.17;43.93
37312;BME280;23197;53.912;9.138;2022-07-23T08:40:49;101795.78;;;23.83;44.24
37312;BME280;23197;53.912;9.138;2022-07-23T08:43:21;101798.94;;;23.53;45.20
37312;BME280;23197;53.912;9.138;2022-07-23T08:45:52;101808.13;;;23.24;45.57
37312;BME280;23197;53.912;9.138;2022-07-23T08:48:20;101818.31;;;23.03;46.18
37312;BME280;23197;53.912;9.138;2022-07-23T08:50:54;101812.84;;;22.87;46.81
37312;BME280;23197;53.912;9.138;2022-07-23T08:53:21;101807.81;;;22.84;47.06
37312;BME280;23197;53.912;9.138;2022-07-23T08:55:50;101815.72;;;22.75;46.89
37312;BME280;23197;53.912;9.138;2022-07-23T08:58:16;101815.25;;;22.62;46.64
37312;BME280;23197;53.912;9.138;2022-07-23T09:00:42;101811.41;;;22.57;46.48
37312;BME280;23197;53.912;9.138;2022-07-23T09:03:15;101818.41;;;22.58;46.82
37312;BME280;23197;53.912;9.138;2022-07-23T09:05:41;101813.59;;;22.61;46.88
37312;BME280;23197;53.912;9.138;2022-07-23T09:08:10;101812.97;;;22.67;47.23
37312;BME280;23197;53.912;9.138;2022-07-23T09:11:03;101797.22;;;22.74;46.66
37312;BME280;23197;53.912;9.138;2022-07-23T09:14:08;101806.44;;;22.80;46.70
37312;BME280;23197;53.912;9.138;2022-07-23T09:16:30;101806.91;;;22.93;46.78
37312;BME280;23197;53.912;9.138;2022-07-23T09:19:01;101801.31;;;23.04;46.81
37312;BME280;23197;53.912;9.138;2022-07-23T09:21:31;101804.09;;;23.20;47.07
37312;BME280;23197;53.912;9.138;2022-07-23T09:26:40;101792.56;;;23.46;46.99
37312;BME280;23197;53.912;9.138;2022-07-23T09:29:25;101789.97;;;23.54;46.35
37312;BME280;23197;53.912;9.138;2022-07-23T09:34:31;101790.88;;;23.71;45.90
37312;BME280;23197;53.912;9.138;2022-07-23T09:37:30;101790.06;;;23.70;46.23
37312;BME280;23197;53.912;9.138;2022-07-23T09:40:04;101800.19;;;23.67;46.38
37312;BME280;23197;53.912;9.138;2022-07-23T09:42:30;101806.63;;;23.56;45.84
37312;BME280;23197;53.912;9.138;2022-07-23T09:44:57;101803.56;;;23.43;46.22
37312;BME280;23197;53.912;9.138;2022-07-23T09:47:28;101807.88;;;23.36;45.98
37312;BME280;23197;53.912;9.138;2022-07-23T09:50:05;101800.31;;;23.31;45.85
37312;BME280;23197;53.912;9.138;2022-07-23T09:52:52;101800.66;;;23.28;45.81
37312;BME280;23197;53.912;9.138;2022-07-23T09:55:17;101815.50;;;23.31;45.99
37312;BME280;23197;53.912;9.138;2022-07-23T09:57:45;101817.78;;;23.51;45.65
37312;BME280;23197;53.912;9.138;2022-07-23T10:00:12;101812.59;;;23.76;46.07
37312;BME280;23197;53.912;9.138;2022-07-23T10:02:39;101823.53;;;23.99;45.72
37312;BME280;23197;53.912;9.138;2022-07-23T10:05:30;101819.44;;;24.21;45.02
37312;BME280;23197;53.912;9.138;2022-07-23T10:08:12;101816.34;;;24.42;44.78
37312;BME280;23197;53.912;9.138;2022-07-23T10:10:56;101819.34;;;24.55;44.11
37312;BME280;23197;53.912;9.138;2022-07-23T10:13:42;101816.66;;;25.04;44.02
37312;BME280;23197;53.912;9.138;2022-07-23T10:16:31;101818.94;;;25.56;42.36
37312;BME280;23197;53.912;9.138;2022-07-23T10:18:57;101826.19;;;25.94;41.92
37312;BME280;23197;53.912;9.138;2022-07-23T10:21:45;101824.66;;;26.31;41.03
37312;BME280;23197;53.912;9.138;2022-07-23T10:24:36;101827.13;;;26.87;41.19
37312;BME280;23197;53.912;9.138;2022-07-23T10:30:04;101833.56;;;27.53;40.04
37312;BME280;23197;53.912;9.138;2022-07-23T10:32:57;101830.28;;;27.57;39.47
37312;BME280;23197;53.912;9.138;2022-07-23T10:35:33;101819.00;;;27.47;38.68
37312;BME280;23197;53.912;9.138;2022-07-23T10:38:27;101831.22;;;27.50;37.70
37312;BME280;23197;53.912;9.138;2022-07-23T10:41:02;101815.31;;;27.78;37.89
37312;BME280;23197;53.912;9.138;2022-07-23T10:43:28;101829.63;;;28.00;36.50
37312;BME280;23197;53.912;9.138;2022-07-23T10:45:55;101837.66;;;28.15;36.80
37312;BME280;23197;53.912;9.138;2022-07-23T10:48:23;101834.03;;;28.58;36.90
37312;BME280;23197;53.912;9.138;2022-07-23T10:51:13;101836.84;;;28.93;36.77
37312;BME280;23197;53.912;9.138;2022-07-23T10:59:22;101843.25;;;29.48;35.22
37312;BME280;23197;53.912;9.138;2022-07-23T11:01:47;101843.84;;;29.43;34.56
37312;BME280;23197;53.912;9.138;2022-07-23T11:04:13;101833.44;;;29.40;33.78
37312;BME280;23197;53.912;9.138;2022-07-23T11:09:30;101835.59;;;30.54;33.51
37312;BME280;23197;53.912;9.138;2022-07-23T11:17:33;101833.66;;;31.67;31.66
37312;BME280;23197;53.912;9.138;2022-07-23T11:25:08;101851.84;;;30.67;31.23
37312;BME280;23197;53.912;9.138;2022-07-23T11:27:41;101841.34;;;30.24;31.88
37312;BME280;23197;53.912;9.138;2022-07-23T11:30:08;101841.16;;;30.19;31.78
37312;BME280;23197;53.912;9.138;2022-07-23T11:32:36;101837.19;;;30.15;32.21
37312;BME280;23197;53.912;9.138;2022-07-23T11:35:27;101848.63;;;29.83;32.63
37312;BME280;23197;53.912;9.138;2022-07-23T11:37:56;101844.84;;;29.36;33.56
37312;BME280;23197;53.912;9.138;2022-07-23T11:40:27;101854.13;;;28.84;34.17
37312;BME280;23197;53.912;9.138;2022-07-23T11:43:03;101860.03;;;28.51;34.77
37312;BME280;23197;53.912;9.138;2022-07-23T11:45:50;101861.38;;;28.26;34.79
37312;BME280;23197;53.912;9.138;2022-07-23T11:48:19;101862.31;;;28.03;35.11
37312;BME280;23197;53.912;9.138;2022-07-23T11:50:45;101859.97;;;27.79;35.23
37312;BME280;23197;53.912;9.138;2022-07-23T11:53:11;101865.47;;;27.63;35.54
37312;BME280;23197;53.912;9.138;2022-07-23T11:55:36;101860.50;;;27.59;35.80
37312;BME280;23197;53.912;9.138;2022-07-23T11:58:02;101871.44;;;27.88;35.67
37312;BME280;23197;53.912;9.138;2022-07-23T12:00:30;101862.81;;;28.07;34.96
37312;BME280;23197;53.912;9.138;2022-07-23T12:02:58;101866.97;;;28.09;34.78
37312;BME280;23197;53.912;9.138;2022-07-23T12:05:34;101869.41;;;28.04;34.50
37312;BME280;23197;53.912;9.138;2022-07-23T12:08:03;101871.72;;;27.93;34.67
37312;BME280;23197;53.912;9.138;2022-07-23T12:10:36;101871.91;;;27.76;35.01
37312;BME280;23197;53.912;9.138;2022-07-23T12:13:05;101873.00;;;27.67;35.08
37312;BME280;23197;53.912;9.138;2022-07-23T12:15:37;101875.88;;;27.66;34.63
37312;BME280;23197;53.912;9.138;2022-07-23T12:18:05;101876.13;;;27.56;34.79
37312;BME280;23197;53.912;9.138;2022-07-23T12:20:34;101869.84;;;27.49;35.13
37312;BME280;23197;53.912;9.138;2022-07-23T12:23:02;101873.44;;;27.41;35.28
37312;BME280;23197;53.912;9.138;2022-07-23T12:25:31;101874.25;;;27.27;35.16
37312;BME280;23197;53.912;9.138;2022-07-23T12:30:46;101880.78;;;27.10;35.49
37312;BME280;23197;53.912;9.138;2022-07-23T12:33:20;101881.47;;;27.03;36.21
37312;BME280;23197;53.912;9.138;2022-07-23T12:35:47;101887.94;;;26.94;36.30
37312;BME280;23197;53.912;9.138;2022-07-23T12:38:15;101886.75;;;26.74;36.38
37312;BME280;23197;53.912;9.138;2022-07-23T12:40:47;101893.56;;;26.54;36.78
37312;BME280;23197;53.912;9.138;2022-07-23T12:43:30;101895.69;;;26.27;36.92
37312;BME280;23197;53.912;9.138;2022-07-23T12:46:07;101897.81;;;26.09;37.62
37312;BME280;23197;53.912;9.138;2022-07-23T12:48:38;101892.81;;;25.97;37.19
37312;BME280;23197;53.912;9.138;2022-07-23T12:51:17;101894.84;;;25.87;37.46
37312;BME280;23197;53.912;9.138;2022-07-23T12:53:53;101886.53;;;25.74;37.84
37312;BME280;23197;53.912;9.138;2022-07-23T12:56:34;101889.19;;;25.74;37.84
37312;BME280;23197;53.912;9.138;2022-07-23T13:01:39;101892.56;;;25.76;38.20
37312;BME280;23197;53.912;9.138;2022-07-23T13:04:14;101893.19;;;25.86;38.10
37312;BME280;23197;53.912;9.138;2022-07-23T13:09:19;101890.47;;;26.03;38.11
37312;BME280;23197;53.912;9.138;2022-07-23T13:11:47;101884.69;;;26.14;37.45
37312;BME280;23197;53.912;9.138;2022-07-23T13:14:14;101888.34;;;26.21;37.45
37312;BME280;23197;53.912;9.138;2022-07-23T13:16:41;101886.31;;;26.31;37.39
37312;BME280;23197;53.912;9.138;2022-07-23T13:19:07;101893.16;;;26.34;37.32
37312;BME280;23197;53.912;9.138;2022-07-23T13:21:32;101887.63;;;26.35;37.18
37312;BME280;23197;53.912;9.138;2022-07-23T13:23:58;101894.66;;;26.36;37.34
37312;BME280;23197;53.912;9.138;2022-07-23T13:26:27;101894.34;;;26.31;37.47
37312;BME280;23197;53.912;9.138;2022-07-23T13:28:53;101886.63;;;26.36;37.69
37312;BME280;23197;53.912;9.138;2022-07-23T13:31:19;101890.63;;;26.40;37.42
37312;BME280;23197;53.912;9.138;2022-07-23T13:33:44;101902.34;;;26.39;37.88